createdAt,value
2022-08-17T00:00:49.494Z,97514.63
2022-08-17T00:03:55.865Z,97521.44
2022-08-17T00:06:59.425Z,97524.56
2022-08-17T00:10:04.559Z,97519.84
2022-08-17T00:13:10.184Z,97519.34
2022-08-17T00:16:15.954Z,97518.81
2022-08-17T00:19:22.883Z,97528.94
2022-08-17T00:22:33.993Z,97523.09
2022-08-17T00:25:41.907Z,97518.22
2022-08-17T00:28:45.603Z,97524.59
2022-08-17T00:31:49.659Z,97529.72
2022-08-17T00:34:53.030Z,97536.34
2022-08-17T00:37:56.390Z,97534.13
2022-08-17T00:41:03.923Z,97527.28
2022-08-17T00:44:07.890Z,97525.94
2022-08-17T00:47:11.238Z,97516.81
2022-08-17T00:50:16.819Z,97516.34
2022-08-17T00:53:20.290Z,97515.84
2022-08-17T00:56:30.699Z,97512.09
2022-08-17T00:59:39.932Z,97523.53
2022-08-17T01:02:46.277Z,97514.59
2022-08-17T01:05:54.430Z,97514.34
2022-08-17T01:08:59.389Z,97522.84
2022-08-17T01:12:06.616Z,97522.13
2022-08-17T01:15:12.765Z,97515.91
2022-08-17T01:18:16.640Z,97506.44
2022-08-17T01:21:27.287Z,97503.78
2022-08-17T01:24:33.861Z,97517.84
2022-08-17T01:27:38.776Z,97517.19
2022-08-17T01:30:57.072Z,97513.84
2022-08-17T01:34:08.457Z,97511.94
2022-08-17T01:37:11.946Z,97509.84
2022-08-17T01:40:23.747Z,97515.06
2022-08-17T01:43:31.099Z,97511.94
2022-08-17T01:46:36.992Z,97519.84
2022-08-17T01:49:40.400Z,97516.56
2022-08-17T01:52:44.750Z,97525.38
2022-08-17T01:55:54.268Z,97517.19
2022-08-17T01:58:58.184Z,97519.56
2022-08-17T02:02:01.766Z,97522.03
2022-08-17T02:05:05.631Z,97510.78
2022-08-17T02:08:08.934Z,97516.38
2022-08-17T02:11:25.218Z,97514.22
2022-08-17T02:14:28.472Z,97510.44
2022-08-17T02:17:31.906Z,97499.72
2022-08-17T02:20:42.670Z,97497.75
2022-08-17T02:23:49.461Z,97499.72
2022-08-17T02:26:54.314Z,97496.38
2022-08-17T02:29:57.660Z,97495.66
2022-08-17T02:33:04.193Z,97497.66
2022-08-17T02:36:10.073Z,97495.41
2022-08-17T02:39:14.022Z,97493.34
2022-08-17T02:42:18.806Z,97499.28
2022-08-17T02:45:24.543Z,97504.28
2022-08-17T02:48:31.104Z,97506.66
2022-08-17T02:51:35.521Z,97501.69
2022-08-17T02:54:41.031Z,97497.16
2022-08-17T02:57:46.903Z,97488.84
2022-08-17T03:00:50.305Z,97498.09
2022-08-17T03:03:53.897Z,97494.28
2022-08-17T03:06:57.214Z,97499.63
2022-08-17T03:10:00.651Z,97494.41
2022-08-17T03:13:05.646Z,97493.09
2022-08-17T03:16:09.857Z,97412.47
2022-08-17T03:19:13.219Z,97490.03
2022-08-17T03:22:36.583Z,97488.34
2022-08-17T03:25:43.419Z,97478.63
2022-08-17T03:28:49.146Z,97487.63
2022-08-17T03:34:33.515Z,97497.91
2022-08-17T03:37:37.830Z,97476.41
2022-08-17T03:40:56.361Z,97508.50
2022-08-17T03:44:02.731Z,97508.03
2022-08-17T03:47:23.805Z,97509.44
2022-08-17T03:50:46.784Z,97505.59
2022-08-17T03:54:09.469Z,97483.97
2022-08-17T03:57:13.536Z,97482.13
2022-08-17T04:00:17.101Z,97508.19
2022-08-17T04:03:20.429Z,97514.19
2022-08-17T04:06:25.164Z,97520.06
2022-08-17T04:09:28.711Z,97529.28
2022-08-17T04:12:44.807Z,97526.34
2022-08-17T04:15:49.148Z,97523.81
2022-08-17T04:18:52.633Z,97504.28
2022-08-17T04:21:58.863Z,97532.19
2022-08-17T04:25:05.369Z,97537.84
2022-08-17T04:28:15.778Z,97528.66
2022-08-17T04:31:19.663Z,97535.66
2022-08-17T04:34:25.111Z,97545.66
2022-08-17T04:37:29.715Z,97530.16
2022-08-17T04:40:51.142Z,97523.09
2022-08-17T04:43:58.239Z,97511.88
2022-08-17T04:47:01.469Z,97529.91
2022-08-17T04:50:05.062Z,97545.09
2022-08-17T04:53:10.386Z,97536.06
2022-08-17T04:56:16.954Z,97540.22
2022-08-17T04:59:23.399Z,97540.13
2022-08-17T05:02:26.823Z,97542.75
2022-08-17T05:05:34.503Z,97545.59
2022-08-17T05:08:39.100Z,97554.03
2022-08-17T05:11:44.987Z,97553.06
2022-08-17T05:14:48.410Z,97551.53
2022-08-17T05:17:51.914Z,97524.00
2022-08-17T05:20:55.552Z,97548.69
2022-08-17T05:24:00.549Z,97549.50
2022-08-17T05:27:04.303Z,97542.19
2022-08-17T05:30:10.749Z,97548.09
2022-08-17T05:33:16.965Z,97553.41
2022-08-17T05:36:41.763Z,97547.78
2022-08-17T05:39:44.942Z,97543.25
2022-08-17T05:42:48.709Z,97550.28
2022-08-17T05:46:01.566Z,97550.34
2022-08-17T05:49:08.324Z,97547.78
2022-08-17T05:52:21.789Z,97513.56
2022-08-17T05:55:35.850Z,97528.44
2022-08-17T05:58:49.458Z,97526.22
2022-08-17T06:02:02.982Z,97533.22
2022-08-17T06:05:16.157Z,97528.47
2022-08-17T06:08:28.384Z,97530.59
2022-08-17T06:11:42.226Z,97513.88
2022-08-17T06:15:02.561Z,97516.91
2022-08-17T06:18:09.101Z,97513.91
2022-08-17T06:21:16.643Z,97513.72
2022-08-17T06:24:29.092Z,97518.66
2022-08-17T06:27:39.354Z,97527.16
2022-08-17T06:30:59.863Z,97505.13
2022-08-17T06:34:07.631Z,97515.06
2022-08-17T06:37:27.280Z,97517.84
2022-08-17T06:40:55.274Z,97530.31
2022-08-17T06:44:10.971Z,97522.81
2022-08-17T06:47:28.196Z,97521.50
2022-08-17T06:50:36.841Z,97525.53
2022-08-17T06:53:46.448Z,97522.28
2022-08-17T06:56:57.374Z,97527.81
2022-08-17T07:00:07.457Z,97521.00
2022-08-17T07:03:20.959Z,97524.97
2022-08-17T07:06:29.114Z,97525.59
2022-08-17T07:09:36.864Z,97514.84
2022-08-17T07:12:44.269Z,97524.84
2022-08-17T07:15:56.802Z,97540.47
2022-08-17T07:19:00.782Z,97543.25
2022-08-17T07:22:17.156Z,97546.81
2022-08-17T07:25:21.405Z,97541.06
2022-08-17T07:28:24.815Z,97561.94
2022-08-17T07:31:33.523Z,97570.03
2022-08-17T07:35:11.300Z,97543.38
2022-08-17T07:38:25.185Z,97561.81
2022-08-17T07:41:53.043Z,97535.09
2022-08-17T07:44:57.948Z,97563.06
2022-08-17T07:48:20.381Z,97554.56
2022-08-17T07:51:29.583Z,97560.13
2022-08-17T07:54:36.782Z,97557.59
2022-08-17T07:57:40.308Z,97561.94
2022-08-17T08:00:43.649Z,97561.44
2022-08-17T08:03:52.574Z,97568.78
2022-08-17T08:06:58.858Z,97576.47
2022-08-17T08:10:08.549Z,97569.88
2022-08-17T08:13:14.943Z,97561.47
2022-08-17T08:16:29.277Z,97560.34
2022-08-17T08:19:37.927Z,97550.50
2022-08-17T08:22:50.354Z,97568.91
2022-08-17T08:26:17.871Z,97559.00
2022-08-17T08:29:40.023Z,97534.31
2022-08-17T08:33:06.156Z,97542.94
2022-08-17T08:37:16.028Z,97547.16
2022-08-17T08:40:05.266Z,97543.78
2022-08-17T08:43:23.102Z,97541.28
2022-08-17T08:46:36.297Z,97534.09
2022-08-17T08:50:03.962Z,97537.06
2022-08-17T08:53:23.564Z,97538.81
2022-08-17T08:56:35.938Z,97541.31
2022-08-17T08:59:54.134Z,97549.19
2022-08-17T09:03:20.062Z,97518.44
2022-08-17T09:06:39.294Z,97524.66
2022-08-17T09:09:59.032Z,97528.09
2022-08-17T09:13:10.711Z,97530.63
2022-08-17T09:16:22.007Z,97538.28
2022-08-17T09:19:40.183Z,97509.31
2022-08-17T09:22:46.636Z,97499.03
2022-08-17T09:25:59.743Z,97521.03
2022-08-17T09:29:08.703Z,97518.38
2022-08-17T09:34:38.987Z,97503.78
2022-08-17T09:37:55.440Z,97525.13
2022-08-17T09:41:10.285Z,97520.75
2022-08-17T09:44:23.943Z,97508.53
2022-08-17T09:47:32.830Z,97517.97
2022-08-17T09:50:55.384Z,97510.72
2022-08-17T09:54:38.154Z,97495.00
2022-08-17T09:57:55.540Z,97475.59
2022-08-17T10:01:09.464Z,97495.72
2022-08-17T10:04:29.685Z,97506.34
2022-08-17T10:07:42.384Z,97504.34
2022-08-17T10:10:56.736Z,97495.28
2022-08-17T10:14:36.886Z,97489.19
2022-08-17T10:17:40.335Z,97500.19
2022-08-17T10:20:50.917Z,97501.75
2022-08-17T10:24:23.067Z,97467.16
2022-08-17T10:27:33.246Z,97479.34
2022-08-17T10:30:46.411Z,97481.91
2022-08-17T10:34:02.071Z,97487.28
2022-08-17T10:37:16.336Z,97467.53
2022-08-17T10:40:36.545Z,97485.69
2022-08-17T10:44:38.308Z,97492.78
2022-08-17T10:47:14.394Z,97477.16
2022-08-17T10:50:46.063Z,97474.03
2022-08-17T10:53:58.733Z,97483.03
2022-08-17T10:57:05.133Z,97496.22
2022-08-17T11:00:14.904Z,97483.91
2022-08-17T11:03:22.164Z,97478.97
2022-08-17T11:06:43.138Z,97498.38
2022-08-17T11:10:07.719Z,97489.38
2022-08-17T11:13:26.677Z,97477.00
2022-08-17T11:16:47.999Z,97481.25
2022-08-17T11:20:13.720Z,97482.69
2022-08-17T11:23:34.687Z,97493.59
2022-08-17T11:26:46.146Z,97494.59
2022-08-17T11:29:58.204Z,97480.88
2022-08-17T11:33:54.079Z,97488.41
2022-08-17T11:37:22.368Z,97482.59
2022-08-17T11:40:57.243Z,97447.69
2022-08-17T11:44:19.674Z,97493.16
2022-08-17T11:48:15.885Z,97490.06
2022-08-17T11:51:35.040Z,97480.31
2022-08-17T11:54:46.174Z,97487.63
2022-08-17T11:58:01.795Z,97487.38
2022-08-17T12:01:07.280Z,97498.84
2022-08-17T12:04:27.834Z,97491.38
2022-08-17T12:07:33.206Z,97477.78
2022-08-17T12:10:41.038Z,97472.03
2022-08-17T12:13:48.589Z,97458.09
2022-08-17T12:17:07.095Z,97479.13
2022-08-17T12:20:19.450Z,97474.75
2022-08-17T12:23:35.298Z,97469.34
2022-08-17T12:26:38.808Z,97469.00
2022-08-17T12:29:45.144Z,97474.72
2022-08-17T12:32:51.064Z,97475.44
2022-08-17T12:36:03.262Z,97468.97
2022-08-17T12:39:13.038Z,97462.72
2022-08-17T12:42:25.367Z,97467.78
2022-08-17T12:45:32.482Z,97470.91
2022-08-17T12:48:37.887Z,97476.47
2022-08-17T12:51:46.257Z,97464.34
2022-08-17T12:54:54.484Z,97462.09
2022-08-17T12:57:59.823Z,97445.03
2022-08-17T13:01:08.774Z,97468.31
2022-08-17T13:04:15.104Z,97465.69
2022-08-17T13:07:37.602Z,97470.00
2022-08-17T13:10:41.101Z,97461.47
2022-08-17T13:13:46.459Z,97453.06
2022-08-17T13:16:53.695Z,97472.72
2022-08-17T13:19:57.420Z,97474.44
2022-08-17T13:23:09.984Z,97466.69
2022-08-17T13:26:17.187Z,97472.75
2022-08-17T13:29:24.776Z,97467.09
2022-08-17T13:32:43.985Z,97466.34
2022-08-17T13:35:50.467Z,97466.63
2022-08-17T13:39:08.301Z,97477.16
2022-08-17T13:42:34.122Z,97469.41
2022-08-17T13:46:09.322Z,97468.25
2022-08-17T13:49:13.025Z,97458.56
2022-08-17T13:52:36.298Z,97462.03
2022-08-17T13:55:49.792Z,97460.28
2022-08-17T13:58:57.938Z,97436.59
2022-08-17T14:02:01.794Z,97438.91
2022-08-17T14:05:06.202Z,97417.53
2022-08-17T14:08:13.134Z,97431.19
2022-08-17T14:11:18.895Z,97437.81
2022-08-17T14:14:23.453Z,97436.00
2022-08-17T14:17:28.990Z,97441.06
2022-08-17T14:20:32.307Z,97427.72
2022-08-17T14:23:35.918Z,97432.84
2022-08-17T14:26:44.467Z,97437.28
2022-08-17T14:29:48.628Z,97448.63
2022-08-17T14:32:52.784Z,97435.72
2022-08-17T14:35:57.663Z,97431.63
2022-08-17T14:39:01.017Z,97435.06
2022-08-17T14:42:05.750Z,97414.84
2022-08-17T14:45:27.073Z,97418.41
2022-08-17T14:48:38.377Z,97410.91
2022-08-17T14:51:44.158Z,97400.84
2022-08-17T14:54:48.362Z,97420.94
2022-08-17T14:57:53.404Z,97414.78
2022-08-17T15:00:57.258Z,97422.75
2022-08-17T15:04:01.047Z,97413.16
2022-08-17T15:07:06.444Z,97418.47
2022-08-17T15:10:10.254Z,97417.84
2022-08-17T15:13:21.109Z,97411.66
2022-08-17T15:16:24.634Z,97388.84
2022-08-17T15:19:28.222Z,97419.81
2022-08-17T15:22:31.749Z,97440.34
2022-08-17T15:25:35.073Z,97430.25
2022-08-17T15:28:39.662Z,97414.28
2022-08-17T15:34:33.373Z,97429.22
2022-08-17T15:37:36.691Z,97424.31
2022-08-17T15:40:43.739Z,97433.56
2022-08-17T15:43:48.528Z,97431.03
2022-08-17T15:46:51.852Z,97433.13
2022-08-17T15:50:00.009Z,97371.44
2022-08-17T15:53:04.816Z,97431.22
2022-08-17T15:56:08.748Z,97427.31
2022-08-17T15:59:12.080Z,97407.25
2022-08-17T16:03:15.301Z,97438.25
2022-08-17T16:05:42.466Z,97432.72
2022-08-17T16:08:46.072Z,97434.78
2022-08-17T16:11:53.715Z,97431.91
2022-08-17T16:14:58.976Z,97434.56
2022-08-17T16:18:02.909Z,97427.38
2022-08-17T16:21:31.286Z,97442.16
2022-08-17T16:24:57.490Z,97433.38
2022-08-17T16:28:01.240Z,97442.16
2022-08-17T16:31:07.985Z,97441.94
2022-08-17T16:34:17.946Z,97439.47
2022-08-17T16:37:23.441Z,97436.41
2022-08-17T16:40:31.317Z,97441.94
2022-08-17T16:43:39.574Z,97440.31
2022-08-17T16:46:45.677Z,97438.66
2022-08-17T16:49:50.736Z,97431.69
2022-08-17T16:53:04.758Z,97425.50
2022-08-17T16:56:08.104Z,97421.78
2022-08-17T16:59:30.429Z,97416.84
2022-08-17T17:02:37.841Z,97401.41
2022-08-17T17:05:59.893Z,97407.31
2022-08-17T17:09:08.020Z,97404.06
2022-08-17T17:12:18.097Z,97400.16
2022-08-17T17:15:24.628Z,97399.53
2022-08-17T17:18:40.218Z,97398.13
2022-08-17T17:21:51.821Z,97391.50
2022-08-17T17:25:07.369Z,97399.66
2022-08-17T17:28:18.457Z,97406.41
2022-08-17T17:31:26.346Z,97365.75
2022-08-17T17:34:33.043Z,97343.50
2022-08-17T17:37:36.712Z,97394.22
2022-08-17T17:40:43.752Z,97375.13
2022-08-17T17:43:50.153Z,97390.44
2022-08-17T17:46:57.745Z,97395.50
2022-08-17T17:50:02.457Z,97388.03
2022-08-17T17:53:10.406Z,97388.03
2022-08-17T17:56:43.065Z,97383.25
2022-08-17T17:59:55.973Z,97381.34
2022-08-17T18:03:12.398Z,97378.88
2022-08-17T18:06:27.448Z,97386.22
2022-08-17T18:09:53.771Z,97360.63
2022-08-17T18:13:16.484Z,97376.56
2022-08-17T18:16:20.010Z,97378.59
2022-08-17T18:19:26.068Z,97366.69
2022-08-17T18:22:31.008Z,97375.03
2022-08-17T18:25:44.510Z,97361.44
2022-08-17T18:28:51.846Z,97373.25
2022-08-17T18:32:17.485Z,97372.44
2022-08-17T18:35:30.163Z,97364.66
2022-08-17T18:38:35.097Z,97386.00
2022-08-17T18:41:42.689Z,97384.16
2022-08-17T18:44:50.610Z,97378.72
2022-08-17T18:47:58.956Z,97388.41
2022-08-17T18:51:05.927Z,97389.94
2022-08-17T18:54:17.262Z,97397.50
2022-08-17T18:57:31.084Z,97377.16
2022-08-17T19:00:39.462Z,97389.63
2022-08-17T19:03:44.170Z,97391.88
2022-08-17T19:06:47.350Z,97384.94
2022-08-17T19:09:54.892Z,97380.69
2022-08-17T19:13:00.863Z,97379.03
2022-08-17T19:16:14.921Z,97391.53
2022-08-17T19:19:24.684Z,97394.53
2022-08-17T19:22:35.569Z,97390.75
2022-08-17T19:25:45.684Z,97394.56
2022-08-17T19:28:54.558Z,97389.97
2022-08-17T19:32:00.930Z,97392.75
2022-08-17T19:35:07.050Z,97363.63
2022-08-17T19:38:21.832Z,97386.88
2022-08-17T19:41:37.470Z,97382.78
2022-08-17T19:44:58.499Z,97377.16
2022-08-17T19:48:15.599Z,97373.16
2022-08-17T19:51:26.308Z,97362.28
2022-08-17T19:54:36.561Z,97377.66
2022-08-17T19:57:50.414Z,97370.78
2022-08-17T20:00:55.401Z,97373.78
2022-08-17T20:04:08.095Z,97367.66
2022-08-17T20:07:16.661Z,97363.53
2022-08-17T20:10:27.970Z,97360.94
2022-08-17T20:13:36.268Z,97372.97
2022-08-17T20:16:39.721Z,97381.91
2022-08-17T20:19:52.093Z,97352.38
2022-08-17T20:23:03.712Z,97393.97
2022-08-17T20:26:19.251Z,97383.06
2022-08-17T20:29:37.194Z,97387.38
2022-08-17T20:32:55.194Z,97398.09
2022-08-17T20:36:15.256Z,97394.66
2022-08-17T20:39:33.606Z,97387.38
2022-08-17T20:42:39.008Z,97403.91
2022-08-17T20:46:14.047Z,97404.38
2022-08-17T20:49:27.069Z,97285.13
2022-08-17T20:52:57.285Z,97416.50
2022-08-17T20:56:00.750Z,97415.81
2022-08-17T20:59:04.439Z,97427.41
2022-08-17T21:02:18.295Z,97428.16
2022-08-17T21:05:34.392Z,97422.22
2022-08-17T21:08:45.874Z,97413.16
2022-08-17T21:12:03.711Z,97411.34
2022-08-17T21:15:21.936Z,97403.59
2022-08-17T21:18:34.124Z,97405.88
2022-08-17T21:21:48.522Z,97392.03
2022-08-17T21:25:04.864Z,97403.66
2022-08-17T21:28:17.252Z,97404.16
2022-08-17T21:34:34.945Z,97422.78
2022-08-17T21:37:41.844Z,97423.69
2022-08-17T21:40:47.065Z,97424.47
2022-08-17T21:43:52.914Z,97425.13
2022-08-17T21:47:13.854Z,97419.41
2022-08-17T21:50:21.820Z,97426.13
2022-08-17T21:53:33.063Z,97439.84
2022-08-17T21:56:41.596Z,97431.56
2022-08-17T21:59:45.249Z,97419.19
2022-08-17T22:02:55.853Z,97423.31
2022-08-17T22:06:20.000Z,97434.75
2022-08-17T22:09:26.341Z,97445.84
2022-08-17T22:12:31.340Z,97443.75
2022-08-17T22:15:39.944Z,97370.31
2022-08-17T22:18:44.666Z,97415.81
2022-08-17T22:21:49.457Z,97427.41
2022-08-17T22:24:56.863Z,97403.88
2022-08-17T22:28:03.384Z,97421.25
2022-08-17T22:31:09.060Z,97399.13
2022-08-17T22:34:15.813Z,97426.66
2022-08-17T22:37:29.893Z,97436.19
2022-08-17T22:40:35.423Z,97440.16
2022-08-17T22:43:43.694Z,97438.44
2022-08-17T22:47:00.108Z,97444.59
2022-08-17T22:50:06.336Z,97431.81
2022-08-17T22:53:35.588Z,97442.41
2022-08-17T22:56:57.384Z,97441.09
2022-08-17T23:00:03.464Z,97432.75
2022-08-17T23:03:12.459Z,97424.63
2022-08-17T23:06:15.910Z,97427.69
2022-08-17T23:09:20.486Z,97444.72
2022-08-17T23:12:27.637Z,97441.59
2022-08-17T23:15:33.899Z,97441.59
2022-08-17T23:18:37.837Z,97426.28
2022-08-17T23:21:41.318Z,97430.25
2022-08-17T23:24:49.765Z,97433.88
2022-08-17T23:27:53.329Z,97435.19
2022-08-17T23:30:57.007Z,97429.28
2022-08-17T23:34:00.605Z,97423.38
2022-08-17T23:37:04.493Z,97424.09
2022-08-17T23:40:10.594Z,97435.97
2022-08-17T23:43:24.824Z,97422.09
2022-08-17T23:46:31.049Z,97434.63
2022-08-17T23:49:35.716Z,97448.16
2022-08-17T23:52:41.203Z,97448.78
2022-08-17T23:55:45.942Z,97494.09
2022-08-17T23:59:07.289Z,97504.41
